createdAt,value
2022-12-20T00:00:52.055Z,99258.31
2022-12-20T00:03:20.589Z,99257.75
2022-12-20T00:05:48.312Z,99249.13
2022-12-20T00:08:15.437Z,99248.09
2022-12-20T00:10:44.295Z,99238.78
2022-12-20T00:13:12.827Z,99242.84
2022-12-20T00:15:39.523Z,99246.34
2022-12-20T00:18:06.391Z,99247.38
2022-12-20T00:20:33.830Z,99248.75
2022-12-20T00:23:00.762Z,99236.22
2022-12-20T00:25:27.576Z,99221.75
2022-12-20T00:27:54.656Z,99231.19
2022-12-20T00:30:40.161Z,99211.63
2022-12-20T00:33:25.461Z,99225.38
2022-12-20T00:35:52.239Z,99233.75
2022-12-20T00:38:18.943Z,99240.50
2022-12-20T00:40:45.717Z,99234.91
2022-12-20T00:43:12.921Z,99237.34
2022-12-20T00:45:39.647Z,99226.53
2022-12-20T00:48:06.423Z,99224.91
2022-12-20T00:50:33.085Z,99219.41
2022-12-20T00:52:59.848Z,99219.41
2022-12-20T00:55:26.628Z,99233.50
2022-12-20T00:57:53.304Z,99235.84
2022-12-20T01:00:20.765Z,99234.78
2022-12-20T01:02:47.583Z,99231.41
2022-12-20T01:05:14.452Z,99234.19
2022-12-20T01:07:41.613Z,99227.53
2022-12-20T01:10:08.995Z,99220.91
2022-12-20T01:12:35.680Z,99233.25
2022-12-20T01:15:02.855Z,99226.72
2022-12-20T01:17:29.701Z,99217.78
2022-12-20T01:19:56.410Z,99223.97
2022-12-20T01:22:23.141Z,99222.06
2022-12-20T01:24:49.893Z,99226.38
2022-12-20T01:27:16.660Z,99229.41
2022-12-20T01:29:43.357Z,99213.91
2022-12-20T01:32:10.192Z,99213.44
2022-12-20T01:34:37.237Z,99209.13
2022-12-20T01:37:04.046Z,99210.75
2022-12-20T01:39:30.743Z,99212.97
2022-12-20T01:41:57.592Z,99197.38
2022-12-20T01:44:24.300Z,99199.22
2022-12-20T01:46:52.246Z,99207.59
2022-12-20T01:49:36.171Z,99200.13
2022-12-20T01:52:26.093Z,99197.22
2022-12-20T01:54:55.774Z,99199.09
2022-12-20T01:57:29.435Z,99198.84
2022-12-20T01:59:57.420Z,99196.97
2022-12-20T02:02:24.771Z,99203.41
2022-12-20T02:04:51.599Z,99200.94
2022-12-20T02:07:24.500Z,99202.56
2022-12-20T02:09:54.342Z,99202.91
2022-12-20T02:12:24.478Z,99197.31
2022-12-20T02:15:16.357Z,99194.97
2022-12-20T02:18:39.089Z,99194.16
2022-12-20T02:21:17.852Z,99187.97
2022-12-20T02:24:09.491Z,99198.69
2022-12-20T02:26:51.501Z,99187.50
2022-12-20T02:29:35.349Z,99180.25
2022-12-20T02:32:20.515Z,99171.25
2022-12-20T02:34:50.631Z,99172.88
2022-12-20T02:37:17.375Z,99172.88
2022-12-20T02:39:46.302Z,99164.03
2022-12-20T02:42:15.305Z,99160.41
2022-12-20T02:45:05.275Z,99158.41
2022-12-20T02:47:47.979Z,99135.22
2022-12-20T02:50:18.719Z,99136.13
2022-12-20T02:52:46.259Z,99122.06
2022-12-20T02:55:13.104Z,99129.69
2022-12-20T02:57:57.879Z,99139.78
2022-12-20T03:00:33.204Z,99147.13
2022-12-20T03:03:19.858Z,99144.81
2022-12-20T03:05:48.775Z,99148.06
2022-12-20T03:08:16.040Z,99139.94
2022-12-20T03:10:42.963Z,99133.44
2022-12-20T03:13:09.916Z,99144.16
2022-12-20T03:15:36.679Z,99144.75
2022-12-20T03:18:03.599Z,99143.13
2022-12-20T03:20:30.432Z,99145.00
2022-12-20T03:22:57.143Z,99140.34
2022-12-20T03:25:23.993Z,99143.53
2022-12-20T03:27:50.680Z,99144.56
2022-12-20T03:30:17.498Z,99137.59
2022-12-20T03:32:44.320Z,99142.38
2022-12-20T03:35:11.064Z,99143.66
2022-12-20T03:37:37.930Z,99140.41
2022-12-20T03:40:05.608Z,99138.00
2022-12-20T03:42:32.629Z,99124.81
2022-12-20T03:44:59.852Z,99133.09
2022-12-20T03:47:26.577Z,99124.72
2022-12-20T03:49:53.384Z,99129.50
2022-12-20T03:52:20.154Z,99120.91
2022-12-20T03:54:46.891Z,99108.56
2022-12-20T03:57:13.688Z,99114.41
2022-12-20T03:59:40.480Z,99104.50
2022-12-20T04:02:07.375Z,99114.19
2022-12-20T04:04:34.211Z,99119.28
2022-12-20T04:07:00.954Z,99114.75
2022-12-20T04:09:27.828Z,99117.44
2022-12-20T04:11:54.720Z,99128.63
2022-12-20T04:14:21.488Z,99123.75
2022-12-20T04:16:48.271Z,99124.56
2022-12-20T04:19:15.103Z,99120.03
2022-12-20T04:21:41.863Z,99114.88
2022-12-20T04:24:08.680Z,99113.03
2022-12-20T04:26:35.326Z,99106.63
2022-12-20T04:29:02.152Z,99100.44
2022-12-20T04:31:28.965Z,99097.53
2022-12-20T04:33:55.754Z,99101.00
2022-12-20T04:36:22.820Z,99086.31
2022-12-20T04:38:49.608Z,99087.13
2022-12-20T04:41:27.044Z,99084.44
2022-12-20T04:43:56.143Z,99089.22
2022-12-20T04:46:24.134Z,99079.34
2022-12-20T04:48:59.753Z,99077.44
2022-12-20T04:51:28.114Z,99071.78
2022-12-20T04:53:55.350Z,99071.22
2022-12-20T04:56:25.571Z,99062.13
2022-12-20T04:58:54.479Z,99072.00
2022-12-20T05:01:22.139Z,99070.72
2022-12-20T05:03:49.639Z,99073.63
2022-12-20T05:06:16.829Z,99063.75
2022-12-20T05:08:43.558Z,99068.59
2022-12-20T05:11:10.825Z,99060.09
2022-12-20T05:13:37.545Z,99056.09
2022-12-20T05:16:04.620Z,99056.91
2022-12-20T05:18:32.199Z,99060.38
2022-12-20T05:21:19.311Z,99057.72
2022-12-20T05:24:04.634Z,99058.75
2022-12-20T05:26:36.360Z,99060.38
2022-12-20T05:29:03.883Z,99049.94
2022-12-20T05:31:31.723Z,99045.38
2022-12-20T05:33:58.589Z,99048.31
2022-12-20T05:36:27.070Z,99044.78
2022-12-20T05:38:58.200Z,99046.69
2022-12-20T05:41:30.415Z,99044.56
2022-12-20T05:43:57.464Z,99043.25
2022-12-20T05:46:24.269Z,99040.56
2022-12-20T05:48:51.082Z,99037.66
2022-12-20T05:51:17.809Z,99049.44
2022-12-20T05:53:44.754Z,99050.22
2022-12-20T05:56:11.514Z,99057.22
2022-12-20T05:58:38.293Z,99054.31
2022-12-20T06:01:07.348Z,99053.81
2022-12-20T06:03:34.401Z,99047.91
2022-12-20T06:06:01.392Z,99044.16
2022-12-20T06:08:28.229Z,99044.16
2022-12-20T06:10:55.152Z,99040.34
2022-12-20T06:13:22.086Z,99046.19
2022-12-20T06:15:48.859Z,99041.88
2022-12-20T06:18:15.560Z,99045.63
2022-12-20T06:20:42.521Z,99047.00
2022-12-20T06:23:09.743Z,99051.78
2022-12-20T06:25:38.105Z,99061.94
2022-12-20T06:28:05.765Z,99053.88
2022-12-20T06:30:34.262Z,99060.66
2022-12-20T06:33:02.086Z,99063.91
2022-12-20T06:35:29.790Z,99067.16
2022-12-20T06:37:57.290Z,99057.47
2022-12-20T06:40:26.684Z,99054.81
2022-12-20T06:42:53.436Z,99040.91
2022-12-20T06:45:20.173Z,99046.00
2022-12-20T06:47:46.902Z,99052.69
2022-12-20T06:50:13.612Z,99050.72
2022-12-20T06:52:40.315Z,99053.19
2022-12-20T06:55:07.402Z,99051.84
2022-12-20T06:57:34.138Z,99043.59
2022-12-20T07:00:00.891Z,99043.09
2022-12-20T07:02:28.242Z,99044.94
2022-12-20T07:04:55.260Z,99035.06
2022-12-20T07:07:22.444Z,99034.00
2022-12-20T07:09:49.244Z,99034.78
2022-12-20T07:12:15.982Z,99031.88
2022-12-20T07:14:42.781Z,99027.81
2022-12-20T07:17:10.728Z,99028.63
2022-12-20T07:19:37.692Z,99027.00
2022-12-20T07:22:05.543Z,99019.53
2022-12-20T07:24:33.448Z,99017.16
2022-12-20T07:27:01.613Z,99022.28
2022-12-20T07:29:28.869Z,99030.34
2022-12-20T07:31:55.943Z,99030.09
2022-12-20T07:34:23.022Z,99032.53
2022-12-20T07:36:50.335Z,99026.66
2022-12-20T07:39:17.079Z,99020.03
2022-12-20T07:41:43.902Z,99033.66
2022-12-20T07:44:10.561Z,99026.44
2022-12-20T07:46:37.503Z,99030.47
2022-12-20T07:49:05.707Z,99015.78
2022-12-20T07:51:40.018Z,99019.03
2022-12-20T07:54:12.253Z,99012.34
2022-12-20T07:56:45.955Z,99009.09
2022-12-20T07:59:16.125Z,99005.34
2022-12-20T08:01:45.460Z,99011.84
2022-12-20T08:04:21.176Z,99007.31
2022-12-20T08:06:49.481Z,99001.69
2022-12-20T08:09:16.771Z,99004.94
2022-12-20T08:11:47.038Z,99006.56
2022-12-20T08:14:14.455Z,99004.19
2022-12-20T08:16:41.621Z,99004.78
2022-12-20T08:19:08.440Z,99020.38
2022-12-20T08:21:35.096Z,99016.63
2022-12-20T08:24:01.788Z,99016.91
2022-12-20T08:26:28.504Z,99001.66
2022-12-20T08:28:56.023Z,99003.00
2022-12-20T08:31:22.955Z,99000.31
2022-12-20T08:33:49.786Z,99003.56
2022-12-20T08:36:16.499Z,98991.78
2022-12-20T08:38:43.289Z,98983.50
2022-12-20T08:41:12.785Z,98976.25
2022-12-20T08:43:41.278Z,98971.13
2022-12-20T08:46:12.433Z,98980.00
2022-12-20T08:48:40.121Z,98975.19
2022-12-20T08:51:09.350Z,98969.31
2022-12-20T08:53:36.762Z,98974.19
2022-12-20T08:56:09.916Z,98965.06
2022-12-20T08:58:37.664Z,98968.06
2022-12-20T09:01:07.435Z,98963.25
2022-12-20T09:03:35.661Z,98971.59
2022-12-20T09:06:06.652Z,98970.06
2022-12-20T09:08:38.029Z,98965.56
2022-12-20T09:11:22.744Z,98956.75
2022-12-20T09:13:52.089Z,98953.84
2022-12-20T09:16:21.750Z,98954.97
2022-12-20T09:18:53.132Z,98958.22
2022-12-20T09:21:20.324Z,98959.84
2022-12-20T09:23:49.999Z,98966.03
2022-12-20T09:26:18.028Z,98960.41
2022-12-20T09:28:45.067Z,98971.44
2022-12-20T09:31:14.707Z,98976.88
2022-12-20T09:33:42.633Z,98974.22
2022-12-20T09:36:14.675Z,98963.78
2022-12-20T09:38:41.741Z,98966.22
2022-12-20T09:41:22.427Z,98979.09
2022-12-20T09:43:49.969Z,98972.09
2022-12-20T09:46:17.192Z,98978.03
2022-12-20T09:48:45.088Z,98968.63
2022-12-20T09:51:33.735Z,98957.09
2022-12-20T09:54:22.184Z,98964.88
2022-12-20T09:57:02.977Z,98955.53
2022-12-20T09:59:33.001Z,98953.13
2022-12-20T10:02:35.449Z,98951.53
2022-12-20T10:04:57.042Z,98947.59
2022-12-20T10:07:42.993Z,98965.13
2022-12-20T10:10:33.180Z,98961.94
2022-12-20T10:13:24.922Z,98947.97
2022-12-20T10:16:04.940Z,98943.44
2022-12-20T10:18:49.992Z,98938.63
2022-12-20T10:21:26.904Z,98933.22
2022-12-20T10:24:12.045Z,98943.47
2022-12-20T10:26:38.940Z,98944.31
2022-12-20T10:29:05.692Z,98937.44
2022-12-20T10:31:32.474Z,98938.25
2022-12-20T10:33:59.281Z,98938.78
2022-12-20T10:36:28.065Z,98938.78
2022-12-20T10:38:57.950Z,98932.59
2022-12-20T10:41:40.748Z,98925.88
2022-12-20T10:44:14.835Z,98924.56
2022-12-20T10:46:45.594Z,98924.28
2022-12-20T10:49:26.735Z,98917.03
2022-12-20T10:51:57.561Z,98917.84
2022-12-20T10:54:37.867Z,98904.38
2022-12-20T10:57:24.758Z,98893.66
2022-12-20T10:59:54.735Z,98887.47
2022-12-20T11:02:40.208Z,98883.97
2022-12-20T11:05:11.475Z,98881.28
2022-12-20T11:08:24.651Z,98879.97
2022-12-20T11:10:38.637Z,98884.50
2022-12-20T11:13:06.484Z,98878.66
2022-12-20T11:15:35.791Z,98884.06
2022-12-20T11:18:09.320Z,98884.09
2022-12-20T11:21:04.105Z,98872.50
2022-12-20T11:24:14.325Z,98852.84
2022-12-20T11:26:47.071Z,98846.09
2022-12-20T11:29:23.295Z,98849.34
2022-12-20T11:32:08.902Z,98841.28
2022-12-20T11:35:03.596Z,98837.53
2022-12-20T11:38:09.019Z,98832.69
2022-12-20T11:40:51.467Z,98830.28
2022-12-20T11:44:15.793Z,98827.59
2022-12-20T11:46:53.179Z,98840.22
2022-12-20T11:49:51.003Z,98844.28
2022-12-20T11:52:26.717Z,98848.03
2022-12-20T11:55:07.314Z,98848.84
2022-12-20T11:58:18.567Z,98842.16
2022-12-20T12:00:58.151Z,98841.34
2022-12-20T12:03:41.499Z,98830.56
2022-12-20T12:06:34.673Z,98816.31
2022-12-20T12:09:21.008Z,98820.34
2022-12-20T12:12:09.485Z,98807.97
2022-12-20T12:14:53.208Z,98798.03
2022-12-20T12:17:35.330Z,98800.19
2022-12-20T12:20:20.370Z,98788.88
2022-12-20T12:22:51.303Z,98797.50
2022-12-20T12:25:19.025Z,98790.28
2022-12-20T12:27:46.172Z,98798.63
2022-12-20T12:30:16.890Z,98798.06
2022-12-20T12:33:03.569Z,98800.22
2022-12-20T12:35:54.483Z,98799.44
2022-12-20T12:38:36.666Z,98789.97
2022-12-20T12:41:24.382Z,98772.72
2022-12-20T12:43:56.220Z,98757.06
2022-12-20T12:46:35.007Z,98744.69
2022-12-20T12:49:23.871Z,98723.66
2022-12-20T12:51:54.196Z,98720.19
2022-12-20T12:54:39.903Z,98734.47
2022-12-20T12:57:15.615Z,98736.38
2022-12-20T12:59:48.811Z,98742.00
2022-12-20T13:02:16.388Z,98729.59
2022-12-20T13:05:09.085Z,98752.53
2022-12-20T13:07:36.478Z,98752.75
2022-12-20T13:10:29.595Z,98752.50
2022-12-20T13:13:01.021Z,98752.75
2022-12-20T13:15:28.434Z,98763.53
2022-12-20T13:18:21.721Z,98754.13
2022-12-20T13:21:18.591Z,98745.22
2022-12-20T13:23:45.516Z,98743.03
2022-12-20T13:26:49.921Z,98720.38
2022-12-20T13:29:36.045Z,98712.81
2022-12-20T13:32:23.208Z,98715.53
2022-12-20T13:34:57.385Z,98718.25
2022-12-20T13:37:29.358Z,98719.06
2022-12-20T13:39:56.448Z,98711.25
2022-12-20T13:42:40.268Z,98706.66
2022-12-20T13:45:13.530Z,98703.97
2022-12-20T13:47:49.779Z,98697.50
2022-12-20T13:50:47.307Z,98700.22
2022-12-20T13:53:20.021Z,98691.88
2022-12-20T13:55:46.947Z,98708.03
2022-12-20T13:58:24.860Z,98718.53
2022-12-20T14:00:53.390Z,98696.97
2022-12-20T14:03:23.850Z,98702.63
2022-12-20T14:05:57.052Z,98704.78
2022-12-20T14:08:28.216Z,98708.81
2022-12-20T14:10:55.043Z,98702.31
2022-12-20T14:13:26.774Z,98692.91
2022-12-20T14:15:54.359Z,98687.50
2022-12-20T14:18:26.005Z,98694.78
2022-12-20T14:21:04.991Z,98696.13
2022-12-20T14:23:39.660Z,98696.91
2022-12-20T14:26:12.816Z,98692.91
2022-12-20T14:28:48.686Z,98691.28
2022-12-20T14:31:41.403Z,98689.16
2022-12-20T14:34:11.120Z,98694.78
2022-12-20T14:36:42.493Z,98680.78
2022-12-20T14:39:33.556Z,98682.13
2022-12-20T14:42:03.036Z,98676.75
2022-12-20T14:44:31.906Z,98671.09
2022-12-20T14:47:01.208Z,98664.91
2022-12-20T14:49:30.491Z,98665.72
2022-12-20T14:52:15.660Z,98661.69
2022-12-20T14:55:10.960Z,98651.47
2022-12-20T14:57:38.019Z,98657.94
2022-12-20T15:00:30.550Z,98652.31
2022-12-20T15:03:00.892Z,98668.72
2022-12-20T15:05:35.298Z,98663.59
2022-12-20T15:08:28.868Z,98652.53
2022-12-20T15:11:17.848Z,98648.25
2022-12-20T15:13:54.307Z,98647.19
2022-12-20T15:16:24.025Z,98647.47
2022-12-20T15:18:54.731Z,98666.03
2022-12-20T15:21:30.521Z,98675.22
2022-12-20T15:23:59.863Z,98673.34
2022-12-20T15:26:27.346Z,98677.91
2022-12-20T15:28:54.817Z,98662.28
2022-12-20T15:31:32.450Z,98656.34
2022-12-20T15:34:03.589Z,98655.56
2022-12-20T15:36:30.822Z,98652.34
2022-12-20T15:39:14.907Z,98658.81
2022-12-20T15:41:46.073Z,98666.09
2022-12-20T15:44:15.337Z,98665.03
2022-12-20T15:46:42.805Z,98660.72
2022-12-20T15:49:18.274Z,98672.56
2022-12-20T15:51:47.570Z,98662.34
2022-12-20T15:54:27.163Z,98654.00
2022-12-20T15:56:59.141Z,98669.88
2022-12-20T15:59:58.843Z,98671.25
2022-12-20T16:02:28.530Z,98670.13
2022-12-20T16:04:55.877Z,98661.25
2022-12-20T16:07:23.525Z,98654.25
2022-12-20T16:09:50.453Z,98665.28
2022-12-20T16:12:25.404Z,98671.97
2022-12-20T16:14:52.159Z,98667.06
2022-12-20T16:17:18.876Z,98671.38
2022-12-20T16:19:46.160Z,98663.63
2022-12-20T16:22:18.359Z,98667.44
2022-12-20T16:24:45.979Z,98666.59
2022-12-20T16:27:12.730Z,98664.72
2022-12-20T16:29:41.269Z,98666.88
2022-12-20T16:32:16.267Z,98662.56
2022-12-20T16:34:43.452Z,98664.78
2022-12-20T16:37:11.720Z,98662.91
2022-12-20T16:39:38.475Z,98669.91
2022-12-20T16:42:14.495Z,98660.22
2022-12-20T16:44:44.291Z,98668.81
2022-12-20T16:47:11.387Z,98662.38
2022-12-20T16:49:38.235Z,98664.00
2022-12-20T16:52:06.692Z,98679.06
2022-12-20T16:54:33.489Z,98660.22
2022-12-20T16:57:00.336Z,98662.38
2022-12-20T16:59:27.070Z,98653.47
2022-12-20T17:01:56.726Z,98654.31
2022-12-20T17:04:24.160Z,98648.94
2022-12-20T17:06:51.152Z,98655.38
2022-12-20T17:09:19.301Z,98656.72
2022-12-20T17:11:46.302Z,98647.56
2022-12-20T17:14:13.599Z,98646.78
2022-12-20T17:16:41.054Z,98631.97
2022-12-20T17:19:09.126Z,98627.66
2022-12-20T17:24:27.849Z,98640.31
2022-12-20T17:26:55.326Z,98636.56
2022-12-20T17:29:22.103Z,98647.03
2022-12-20T17:31:49.969Z,98636.56
2022-12-20T17:34:19.632Z,98644.88
2022-12-20T17:36:47.928Z,98642.47
2022-12-20T17:39:14.956Z,98649.47
2022-12-20T17:41:42.942Z,98646.25
2022-12-20T17:44:20.648Z,98637.63
2022-12-20T17:46:48.176Z,98627.13
2022-12-20T17:49:15.937Z,98620.13
2022-12-20T17:51:43.303Z,98620.97
2022-12-20T17:54:18.220Z,98621.75
2022-12-20T17:56:45.534Z,98610.44
2022-12-20T17:59:13.738Z,98610.72
2022-12-20T18:01:42.929Z,98609.91
2022-12-20T18:04:15.576Z,98613.69
2022-12-20T18:06:45.045Z,98626.34
2022-12-20T18:09:14.475Z,98631.97
2022-12-20T18:11:41.699Z,98626.88
2022-12-20T18:14:08.829Z,98626.88
2022-12-20T18:16:35.649Z,98616.13
2022-12-20T18:19:02.952Z,98618.00
2022-12-20T18:21:29.892Z,98619.59
2022-12-20T18:23:57.272Z,98631.19
2022-12-20T18:26:29.800Z,98626.59
2022-12-20T18:28:59.152Z,98610.75
2022-12-20T18:31:28.470Z,98614.75
2022-12-20T18:33:58.437Z,98605.63
2022-12-20T18:36:28.503Z,98609.91
2022-12-20T18:38:57.782Z,98611.28
2022-12-20T18:41:29.806Z,98603.47
2022-12-20T18:44:01.159Z,98612.06
2022-12-20T18:46:28.968Z,98604.28
2022-12-20T18:48:58.303Z,98617.19
2022-12-20T18:51:27.638Z,98617.44
2022-12-20T18:53:56.631Z,98609.66
2022-12-20T18:56:32.942Z,98612.88
2022-12-20T18:59:08.189Z,98608.31
2022-12-20T19:01:38.551Z,98598.63
2022-12-20T19:04:07.336Z,98615.56
2022-12-20T19:06:36.061Z,98628.47
2022-12-20T19:09:05.826Z,98620.66
2022-12-20T19:11:32.869Z,98622.03
2022-12-20T19:13:59.779Z,98618.53
2022-12-20T19:16:33.787Z,98613.97
2022-12-20T19:19:02.084Z,98613.41
2022-12-20T19:21:31.315Z,98610.97
2022-12-20T19:23:59.976Z,98614.50
2022-12-20T19:26:28.435Z,98613.16
2022-12-20T19:28:56.464Z,98608.06
2022-12-20T19:31:25.725Z,98616.91
2022-12-20T19:33:57.050Z,98605.59
2022-12-20T19:36:29.654Z,98601.59
2022-12-20T19:38:58.902Z,98597.00
2022-12-20T19:41:29.358Z,98599.97
2022-12-20T19:43:57.142Z,98599.69
2022-12-20T19:46:29.328Z,98607.50
2022-12-20T19:48:57.835Z,98611.53
2022-12-20T19:51:25.820Z,98603.75
2022-12-20T19:53:53.858Z,98606.69
2022-12-20T19:56:25.207Z,98611.53
2022-12-20T19:58:53.632Z,98614.50
2022-12-20T20:01:22.899Z,98613.97
2022-12-20T20:03:49.958Z,98616.34
2022-12-20T20:06:20.400Z,98621.47
2022-12-20T20:08:49.562Z,98625.25
2022-12-20T20:11:19.197Z,98624.19
2022-12-20T20:13:46.053Z,98622.56
2022-12-20T20:16:16.996Z,98620.41
2022-12-20T20:18:49.065Z,98629.28
2022-12-20T20:21:21.382Z,98627.41
2022-12-20T20:23:53.071Z,98630.09
2022-12-20T20:26:26.060Z,98625.28
2022-12-20T20:28:53.541Z,98624.19
2022-12-20T20:31:21.687Z,98625.81
2022-12-20T20:33:48.956Z,98627.69
2022-12-20T20:36:19.931Z,98620.97
2022-12-20T20:38:46.888Z,98626.34
2022-12-20T20:41:14.741Z,98634.97
2022-12-20T20:43:42.373Z,98623.66
2022-12-20T20:46:11.922Z,98626.34
2022-12-20T20:48:39.349Z,98627.94
2022-12-20T20:51:06.608Z,98630.63
2022-12-20T20:53:34.523Z,98624.19
2022-12-20T20:56:03.448Z,98635.47
2022-12-20T20:58:30.619Z,98634.63
2022-12-20T21:00:59.775Z,98634.88
2022-12-20T21:03:28.089Z,98638.09
2022-12-20T21:08:42.215Z,98639.72
2022-12-20T21:11:09.864Z,98631.63
2022-12-20T21:13:36.896Z,98636.22
2022-12-20T21:16:09.362Z,98633.78
2022-12-20T21:18:36.327Z,98645.63
2022-12-20T21:21:11.674Z,98644.00
2022-12-20T21:23:43.065Z,98638.38
2022-12-20T21:26:09.905Z,98628.16
2022-12-20T21:28:36.679Z,98605.78
2022-12-20T21:31:09.572Z,98610.09
2022-12-20T21:33:36.535Z,98609.28
2022-12-20T21:36:08.180Z,98611.13
2022-12-20T21:38:34.918Z,98613.31
2022-12-20T21:41:02.522Z,98608.97
2022-12-20T21:43:29.901Z,98605.50
2022-12-20T21:45:57.457Z,98613.03
2022-12-20T21:48:25.503Z,98596.88
2022-12-20T21:51:11.228Z,98597.16
2022-12-20T21:53:56.053Z,98586.13
2022-12-20T21:56:24.777Z,98591.22
2022-12-20T21:58:51.979Z,98609.53
2022-12-20T22:01:24.999Z,98614.91
2022-12-20T22:03:54.476Z,98613.84
2022-12-20T22:06:21.706Z,98613.31
2022-12-20T22:08:48.495Z,98612.25
2022-12-20T22:11:18.120Z,98615.78
2022-12-20T22:13:46.069Z,98614.41
2022-12-20T22:16:15.246Z,98620.06
2022-12-20T22:18:43.519Z,98618.69
2022-12-20T22:21:13.148Z,98625.16
2022-12-20T22:23:40.690Z,98630.28
2022-12-20T22:26:15.036Z,98631.91
2022-12-20T22:29:02.651Z,98620.84
2022-12-20T22:31:29.595Z,98619.47
2022-12-20T22:33:57.479Z,98611.91
2022-12-20T22:36:25.550Z,98615.94
2022-12-20T22:38:54.062Z,98629.97
2022-12-20T22:41:28.829Z,98629.19
2022-12-20T22:43:58.241Z,98625.44
2022-12-20T22:46:25.604Z,98623.84
2022-12-20T22:48:52.457Z,98619.28
2022-12-20T22:51:21.826Z,98623.06
2022-12-20T22:53:49.297Z,98632.22
2022-12-20T22:56:18.630Z,98626.28
2022-12-20T22:58:45.710Z,98611.72
2022-12-20T23:01:15.064Z,98605.25
2022-12-20T23:03:42.380Z,98606.34
2022-12-20T23:06:12.852Z,98607.97
2022-12-20T23:08:39.979Z,98598.84
2022-12-20T23:11:34.041Z,98604.50
2022-12-20T23:14:19.379Z,98602.59
2022-12-20T23:16:46.157Z,98604.78
2022-12-20T23:19:13.026Z,98605.03
2022-12-20T23:21:58.595Z,98601.56
2022-12-20T23:24:26.236Z,98603.44
2022-12-20T23:26:52.955Z,98595.66
2022-12-20T23:29:19.782Z,98594.81
2022-12-20T23:31:46.641Z,98591.34
2022-12-20T23:34:13.647Z,98579.75
2022-12-20T23:36:40.881Z,98577.59
2022-12-20T23:39:08.234Z,98580.56
2022-12-20T23:41:35.030Z,98579.22
2022-12-20T23:44:04.987Z,98583.28
2022-12-20T23:46:32.092Z,98585.44
2022-12-20T23:48:59.178Z,98584.91
2022-12-20T23:51:25.896Z,98588.13
2022-12-20T23:53:52.755Z,98589.75
2022-12-20T23:56:21.841Z,98584.88
2022-12-20T23:58:54.329Z,98588.13
